Woodrow, CO (80757)

10:20 PM MDT on July 22, 2014 (GMT -0600)
Akron-Washington County (KAKO) Elev 4662 ft | 40.17 °N, 103.21 °W | Change Station

Current weather conditions updated 27 minutes ago

Clear
Clear
74 °F
Feels Like 74 °F
N
10
Wind Variable Wind from East

Tomorrow is forecast to be Warmer than today.

Today
High -- | Low -- °F
--% Chance of Precip.
Yesterday
High -- | Low -- °F
Precip. -- in
5:44 AM 8:16 PM
Waning Crescent, 13% visible
Pressure 30.09 in
Visibility 10.0 miles
Clouds Clear
Dew Point 60 °F
Humidity 62%
Rainfall 0.00 in
Snow Depth Not available.
UV 0 out of 12
Pollen 6.60 out of 12
Air Quality Not available.
Flu Activity Not available.
METAR KAKO 230353Z AUTO 10009KT 10SM CLR 23/16 A3028 RMK AO2 SLP188 T02330156

More Conditions Fewer Conditions

Pressure 30.09 in
Visibility 10.0 miles
Clouds Clear
Dew Point 60 °F
Humidity 62%
Rainfall 0.00 in
Snow Depth Not available.
UV 0 out of 12
Pollen 6.60 out of 12
Air Quality Not available.
Flu Activity Not available.
METAR KAKO 230353Z AUTO 10009KT 10SM CLR 23/16 A3028 RMK AO2 SLP188 T02330156

More Conditions Fewer Conditions

10-Day Weather Forecast

Almanac

Astronomy

Jul. 22, 2014 Rise Set
Actual Time 5:44 AM MDT 8:16 PM MDT
Civil Twilight 5:13 AM MDT 8:47 PM MDT
Nautical Twilight 4:34 AM MDT 9:26 PM MDT
Astronomical Twilight 3:51 AM MDT 10:09 PM MDT
Moon 2:19 AM MDT (7/22) 4:56 PM MDT (7/22)
Length of Visible Light 15h 34m
Length of Day
14h 32m
Tomorrow will be 1m 39s shorter.
Waning Crescent, 13% of the Moon is Illuminated
Jul 23
Waning Crescent
Jul 26
New
Aug 3
First Quarter
Aug 10
Full
Aug 17
Last Quarter

Today's Extremes

State Highs State Lows

Community

WunderPhotos

Upload Photos

1,736,495 photos uploaded!

Nearby

Snow Depth

Station Depth Elevation
University Camp 0 in 10300 ft
Wild Basin 116 in 9560 ft
Berthoud Summit 0 in 11300 ft
Jackwhacker Gulch 0 in 10960 ft
Grizzly Peak 4 in 11100 ft

Earthquake Activity

City Distance Mag. Time & Date
No recent earthquake activity has been reported nearby.
Minimum magnitude displayed is 2.5.

Coastal Water Temperatures

Place Temperature
No Stations Reporting

Nearby Weather Stations

There are no personal weather stations in this area.